Greenwood Leflore Airport
KGWO : rendu visible

Aérodrome :











RETROUVEZ-NOUS SUR...

 
LOGIN :

S'inscrire | Disclaimer

   EN    FR    IT 

 









Légende :    VFR   VFR Marginal   IFR   IFR Intensif   IFR Très Intensif
Visi : 
Plafond : 
>= 8 km
>= 3000ft
5 à 8 km
1000 à 3000 ft
1500m à 5 km
500 à 1000 ft
800 à 1500m
200 à 500 ft
< 800m
< 200 ft
Symboles :   Orages  Brouillard  Fortes neiges  Fortes précipitations  Vent > 20 kt






- Altitude de l'aérodrome : 162 ft


KGWO - Greenwood Leflore

DERNIER METAR :
  • 150853Z AUTO 17004KT 10SM CLR 26/24 A2996 RMK AO2 SLP143 T02610239 53000

METARs EXPIRÉS :
  • 150753Z AUTO 20004KT 10SM CLR 26/24 A2995 RMK AO2 SLP138 T02610239
  • 150653Z AUTO 00000KT 10SM CLR 27/24 A2995 RMK AO2 SLP138 T02720244
  • 150553Z AUTO 05003KT 10SM CLR 27/24 A2996 RMK AO2 SLP143 T02670244 10317 20256 403500239 58005

TAF KGWO
Valide du 15 à 06h jusqu'au 16 à 06h UTC


150538Z 1506/1606 16003KT P6SM FEW060 SCT250
FIR KZME / Amérique du Nord



MET'MAP, la Météo Aéronautique d'un coup d'oeil ! - Copyright ORBIFLY Décembre 2007 - Disclaimer

ORBIFLY MET'MAP TEAM :

Programmation & Développement : Alexandra Zaïnal
Sur une idée originale de : Baudouin d'Aumeries
Assistance à la programmation : Marc-Olivier Méhu
Soutien technique & logistique : Manuel Goepfert

Contact : metmap@orbifly.com




SOURCES & CREDITS :

   NOAA       Earth
Advisory